createdAt,value
2023-10-12T00:02:29.064Z,81.61
2023-10-12T00:05:02.860Z,81.92
2023-10-12T00:07:36.624Z,82.40
2023-10-12T00:10:13.301Z,81.99
2023-10-12T00:12:45.519Z,81.94
2023-10-12T00:15:24.560Z,81.72
2023-10-12T00:17:53.117Z,81.92
2023-10-12T00:20:26.914Z,82.37
2023-10-12T00:22:54.404Z,82.57
2023-10-12T00:25:24.328Z,82.23
2023-10-12T00:27:52.869Z,81.73
2023-10-12T00:30:20.712Z,82.30
2023-10-12T00:32:49.193Z,82.24
2023-10-12T00:35:19.413Z,82.68
2023-10-12T00:37:49.499Z,83.03
2023-10-12T00:40:28.027Z,82.95
2023-10-12T00:42:57.269Z,83.32
2023-10-12T00:45:30.829Z,83.74
2023-10-12T00:48:02.445Z,84.82
2023-10-12T00:50:31.218Z,85.60
2023-10-12T00:53:16.022Z,86.00
2023-10-12T00:55:44.366Z,85.94
2023-10-12T00:58:15.251Z,85.48
2023-10-12T01:00:46.812Z,86.22
2023-10-12T01:03:36.370Z,85.69
2023-10-12T01:06:22.578Z,85.62
2023-10-12T01:08:51.717Z,86.06
2023-10-12T01:11:21.873Z,85.74
2023-10-12T01:13:50.772Z,86.28
2023-10-12T01:16:23.369Z,85.72
2023-10-12T01:19:01.790Z,84.98
2023-10-12T01:21:30.197Z,84.95
2023-10-12T01:24:03.922Z,84.55
2023-10-12T01:26:33.180Z,84.32
2023-10-12T01:29:01.817Z,83.69
2023-10-12T01:31:29.953Z,84.02
2023-10-12T01:33:59.221Z,83.63
2023-10-12T01:36:29.245Z,83.30
2023-10-12T01:39:11.916Z,82.57
2023-10-12T01:41:42.287Z,82.10
2023-10-12T01:44:11.745Z,81.90
2023-10-12T01:46:42.025Z,82.52
2023-10-12T01:49:09.761Z,82.38
2023-10-12T01:51:42.073Z,82.37
2023-10-12T01:54:13.225Z,82.67
2023-10-12T01:56:42.149Z,81.73
2023-10-12T01:59:10.052Z,81.67
2023-10-12T02:01:43.690Z,82.40
2023-10-12T02:04:11.463Z,81.81
2023-10-12T02:06:40.613Z,82.00
2023-10-12T02:09:11.034Z,81.62
2023-10-12T02:11:44.107Z,81.11
2023-10-12T02:14:23.890Z,80.45
2023-10-12T02:16:55.283Z,80.90
2023-10-12T02:19:32.741Z,81.50
2023-10-12T02:22:05.359Z,81.31
2023-10-12T02:24:36.415Z,81.63
2023-10-12T02:27:05.830Z,81.23
2023-10-12T02:29:37.873Z,81.42
2023-10-12T02:32:21.933Z,81.49
2023-10-12T02:34:56.618Z,83.04
2023-10-12T02:37:25.745Z,82.45
2023-10-12T02:39:55.302Z,83.62
2023-10-12T02:42:29.420Z,84.17
2023-10-12T02:45:19.152Z,84.57
2023-10-12T02:47:48.322Z,85.47
2023-10-12T02:50:38.526Z,86.25
2023-10-12T02:53:13.374Z,86.94
2023-10-12T02:55:49.955Z,87.29
2023-10-12T02:58:21.478Z,87.12
2023-10-12T03:00:56.746Z,87.19
2023-10-12T03:03:26.883Z,87.99
2023-10-12T03:05:59.554Z,88.78
2023-10-12T03:08:31.843Z,88.51
2023-10-12T03:11:13.685Z,89.34
2023-10-12T03:13:43.393Z,89.42
2023-10-12T03:16:21.624Z,90.07
2023-10-12T03:18:54.498Z,90.33
2023-10-12T03:21:24.373Z,89.90
2023-10-12T03:23:57.184Z,90.44
2023-10-12T03:26:26.617Z,90.78
2023-10-12T03:28:55.100Z,91.28
2023-10-12T03:31:25.484Z,91.67
2023-10-12T03:33:56.770Z,92.31
2023-10-12T03:36:25.473Z,92.76
2023-10-12T03:39:09.348Z,92.86
2023-10-12T03:41:56.040Z,93.19
2023-10-12T03:44:36.469Z,93.03
2023-10-12T03:47:16.198Z,91.57
2023-10-12T03:49:58.738Z,92.26
2023-10-12T03:52:31.017Z,92.19
2023-10-12T03:55:20.208Z,91.44
2023-10-12T03:57:52.436Z,92.08
2023-10-12T04:00:33.278Z,92.09
2023-10-12T04:03:12.066Z,91.82
2023-10-12T04:05:52.072Z,91.91
2023-10-12T04:08:37.324Z,91.78
2023-10-12T04:11:22.324Z,92.85
2023-10-12T04:14:12.538Z,93.61
2023-10-12T04:16:46.595Z,94.34
2023-10-12T04:19:17.492Z,94.51
2023-10-12T04:22:05.647Z,95.92
2023-10-12T04:24:44.303Z,96.11
2023-10-12T04:27:25.475Z,95.87
2023-10-12T04:29:57.958Z,95.24
2023-10-12T04:32:54.985Z,95.83
2023-10-12T04:35:42.522Z,96.45
2023-10-12T04:38:20.848Z,95.75
2023-10-12T04:41:08.322Z,95.51
2023-10-12T04:43:38.021Z,95.85
2023-10-12T04:46:27.505Z,95.99
2023-10-12T04:49:13.568Z,96.06
2023-10-12T04:51:42.611Z,96.63
2023-10-12T04:54:19.297Z,97.13
2023-10-12T04:56:57.314Z,97.45
2023-10-12T04:59:30.133Z,97.66
2023-10-12T05:02:16.924Z,96.65
2023-10-12T05:05:11.372Z,96.05
2023-10-12T05:07:58.835Z,94.52
2023-10-12T05:10:33.119Z,93.55
2023-10-12T05:13:05.552Z,93.42
2023-10-12T05:15:41.124Z,93.05
2023-10-12T05:18:09.012Z,92.62
2023-10-12T05:20:36.552Z,92.90
2023-10-12T05:23:05.635Z,92.99
2023-10-12T05:25:49.109Z,92.69
2023-10-12T05:28:16.900Z,92.92
2023-10-12T05:30:50.203Z,92.74
2023-10-12T05:33:39.205Z,93.01
2023-10-12T05:36:10.243Z,93.25
2023-10-12T05:38:39.919Z,93.52
2023-10-12T05:41:09.812Z,93.89
2023-10-12T05:43:38.289Z,94.13
2023-10-12T05:46:11.548Z,94.67
2023-10-12T05:48:42.371Z,94.70
2023-10-12T05:51:12.045Z,94.82
2023-10-12T05:53:40.884Z,94.67
2023-10-12T05:56:08.466Z,95.42
2023-10-12T05:58:39.618Z,95.88
2023-10-12T06:01:41.623Z,96.37
2023-10-12T06:04:09.928Z,95.42
2023-10-12T06:06:42.910Z,95.35
2023-10-12T06:09:14.803Z,95.38
2023-10-12T06:11:43.755Z,95.39
2023-10-12T06:14:11.631Z,95.17
2023-10-12T06:16:41.663Z,94.85
2023-10-12T06:19:19.561Z,95.03
2023-10-12T06:21:47.400Z,95.21
2023-10-12T06:24:22.273Z,95.36
2023-10-12T06:26:50.271Z,95.04
2023-10-12T06:29:27.054Z,95.20
2023-10-12T06:31:56.087Z,94.49
2023-10-12T06:34:24.866Z,94.99
2023-10-12T06:36:59.221Z,94.96
2023-10-12T06:39:48.320Z,94.25
2023-10-12T06:42:28.417Z,94.18
2023-10-12T06:44:55.792Z,94.13
2023-10-12T06:47:42.133Z,93.32
2023-10-12T06:50:19.293Z,93.56
2023-10-12T06:52:45.858Z,93.83
2023-10-12T06:55:22.740Z,94.21
2023-10-12T06:57:56.121Z,94.50
2023-10-12T07:00:35.471Z,93.68
2023-10-12T07:03:12.455Z,94.19
2023-10-12T07:05:39.604Z,94.09
2023-10-12T07:08:16.605Z,95.19
2023-10-12T07:10:59.394Z,95.44
2023-10-12T07:13:27.846Z,96.29
2023-10-12T07:15:55.898Z,97.01
2023-10-12T07:18:23.635Z,96.73
2023-10-12T07:20:51.166Z,98.06
2023-10-12T07:23:20.492Z,96.13
2023-10-12T07:25:51.269Z,96.22
2023-10-12T07:28:21.017Z,95.51
2023-10-12T07:31:02.642Z,96.58
2023-10-12T07:33:31.361Z,97.01
2023-10-12T07:36:08.363Z,97.08
2023-10-12T07:38:37.220Z,97.02
2023-10-12T07:41:06.313Z,96.85
2023-10-12T07:43:33.974Z,96.73
2023-10-12T07:46:16.197Z,97.67
2023-10-12T07:48:46.290Z,96.45
2023-10-12T07:51:20.418Z,96.65
2023-10-12T07:53:50.427Z,95.78
2023-10-12T07:56:19.686Z,96.94
2023-10-12T07:58:58.402Z,95.88
2023-10-12T08:01:41.065Z,96.47
2023-10-12T08:04:10.913Z,96.71
2023-10-12T08:06:43.724Z,95.76
2023-10-12T08:09:23.515Z,96.41
2023-10-12T08:11:52.416Z,94.27
2023-10-12T08:14:40.690Z,94.67
2023-10-12T08:17:30.581Z,93.89
2023-10-12T08:20:14.022Z,94.82
2023-10-12T08:22:43.076Z,93.90
2023-10-12T08:25:10.850Z,92.71
2023-10-12T08:27:53.642Z,92.42
2023-10-12T08:30:24.791Z,93.38
2023-10-12T08:32:59.420Z,93.24
2023-10-12T08:35:40.300Z,92.85
2023-10-12T08:38:27.128Z,93.72
2023-10-12T08:41:21.819Z,94.96
2023-10-12T08:43:53.842Z,95.01
2023-10-12T08:46:55.133Z,94.91
2023-10-12T08:49:44.652Z,95.70
2023-10-12T08:52:19.448Z,95.82
2023-10-12T08:54:53.726Z,94.17
2023-10-12T08:57:34.016Z,95.22
2023-10-12T09:00:24.530Z,96.13
2023-10-12T09:02:53.795Z,94.28
2023-10-12T09:05:25.397Z,94.83
2023-10-12T09:08:07.198Z,94.61
2023-10-12T09:10:37.666Z,93.40
2023-10-12T09:13:06.311Z,93.37
2023-10-12T09:15:50.176Z,93.94
2023-10-12T09:18:18.369Z,94.15
2023-10-12T09:20:59.693Z,94.08
2023-10-12T09:23:30.381Z,92.61
2023-10-12T09:26:12.462Z,90.53
2023-10-12T09:28:53.940Z,90.29
2023-10-12T09:31:51.323Z,90.77
2023-10-12T09:34:43.730Z,89.93
2023-10-12T09:37:17.347Z,91.40
2023-10-12T09:39:48.121Z,92.08
2023-10-12T09:42:23.704Z,89.75
2023-10-12T09:45:02.399Z,90.80
2023-10-12T09:47:45.069Z,87.52
2023-10-12T09:50:15.919Z,85.16
2023-10-12T09:52:48.404Z,82.77
2023-10-12T09:55:24.814Z,79.03
2023-10-12T09:57:53.707Z,80.89
2023-10-12T10:00:29.432Z,79.63
2023-10-12T10:03:04.420Z,79.16
2023-10-12T10:05:52.781Z,78.04
2023-10-12T10:08:21.708Z,76.20
2023-10-12T10:10:58.297Z,74.11
2023-10-12T10:13:40.057Z,73.81
2023-10-12T10:16:10.751Z,72.66
2023-10-12T10:18:47.795Z,72.36
2023-10-12T10:21:16.662Z,72.17
2023-10-12T10:23:50.185Z,70.43
2023-10-12T10:26:22.123Z,71.33
2023-10-12T10:28:56.311Z,69.73
2023-10-12T10:31:28.011Z,69.29
2023-10-12T10:34:02.200Z,68.57
2023-10-12T10:36:35.348Z,68.33
2023-10-12T10:39:35.695Z,69.16
2023-10-12T10:42:08.912Z,68.21
2023-10-12T10:44:42.893Z,67.95
2023-10-12T10:47:12.031Z,67.78
2023-10-12T10:49:46.438Z,68.19
2023-10-12T10:52:21.544Z,67.23
2023-10-12T10:55:01.722Z,66.73
2023-10-12T10:57:39.406Z,66.88
2023-10-12T11:00:16.166Z,66.51
2023-10-12T11:02:44.755Z,65.79
2023-10-12T11:05:20.686Z,65.52
2023-10-12T11:07:52.297Z,63.06
2023-10-12T11:10:32.614Z,63.14
2023-10-12T11:13:01.654Z,63.55
2023-10-12T11:15:30.752Z,62.20
2023-10-12T11:17:58.722Z,63.17
2023-10-12T11:20:37.357Z,61.03
2023-10-12T11:23:08.948Z,61.45
2023-10-12T11:25:41.237Z,60.98
2023-10-12T11:28:22.037Z,60.92
2023-10-12T11:30:53.159Z,60.19
2023-10-12T11:33:28.472Z,59.05
2023-10-12T11:36:01.871Z,58.41
2023-10-12T11:38:30.223Z,57.63
2023-10-12T11:40:59.051Z,57.17
2023-10-12T11:43:46.025Z,57.76
2023-10-12T11:46:15.870Z,58.05
2023-10-12T11:48:43.664Z,57.26
2023-10-12T11:51:13.559Z,56.70
2023-10-12T11:53:42.466Z,56.57
2023-10-12T11:56:14.491Z,57.28
2023-10-12T11:58:42.036Z,57.50
2023-10-12T12:01:11.440Z,56.36
2023-10-12T12:03:41.101Z,55.73
2023-10-12T12:06:19.828Z,55.68
2023-10-12T12:08:49.197Z,54.75
2023-10-12T12:11:20.390Z,55.17
2023-10-12T12:13:52.881Z,56.05
2023-10-12T12:16:22.259Z,56.21
2023-10-12T12:18:51.359Z,54.42
2023-10-12T12:21:30.136Z,54.74
2023-10-12T12:24:02.324Z,53.18
2023-10-12T12:26:34.564Z,52.93
2023-10-12T12:29:05.640Z,53.10
2023-10-12T12:31:34.148Z,53.66
2023-10-12T12:34:02.815Z,53.73
2023-10-12T12:36:31.303Z,53.49
2023-10-12T12:39:01.836Z,54.05
2023-10-12T12:41:31.421Z,54.41
2023-10-12T12:44:00.236Z,54.74
2023-10-12T12:46:30.943Z,53.81
2023-10-12T12:48:59.012Z,53.94
2023-10-12T12:51:26.590Z,53.85
2023-10-12T12:53:54.297Z,54.15
2023-10-12T12:56:26.071Z,54.18
2023-10-12T12:58:55.693Z,54.01
2023-10-12T13:01:25.474Z,54.50
2023-10-12T13:03:56.422Z,53.89
2023-10-12T13:06:24.764Z,53.71
2023-10-12T13:08:52.262Z,53.08
2023-10-12T13:11:19.961Z,51.97
2023-10-12T13:13:51.229Z,50.76
2023-10-12T13:16:19.136Z,51.31
2023-10-12T13:18:48.616Z,52.00
2023-10-12T13:21:17.088Z,51.24
2023-10-12T13:23:44.924Z,51.51
2023-10-12T13:26:14.079Z,50.79
2023-10-12T13:28:43.552Z,50.86
2023-10-12T13:31:12.974Z,49.27
2023-10-12T13:33:42.949Z,48.93
2023-10-12T13:36:10.946Z,49.12
2023-10-12T13:38:39.016Z,49.36
2023-10-12T13:41:07.240Z,48.49
2023-10-12T13:43:36.301Z,48.48
2023-10-12T13:46:09.032Z,48.31
2023-10-12T13:48:40.071Z,49.19
2023-10-12T13:51:14.333Z,49.46
2023-10-12T13:53:42.586Z,49.33
2023-10-12T13:56:11.442Z,48.60
2023-10-12T13:58:40.070Z,48.91
2023-10-12T14:01:15.484Z,48.19
2023-10-12T14:03:46.620Z,48.40
2023-10-12T14:06:14.599Z,48.27
2023-10-12T14:08:42.527Z,48.22
2023-10-12T14:11:14.820Z,47.31
2023-10-12T14:13:42.339Z,47.07
2023-10-12T14:16:10.610Z,46.64
2023-10-12T14:18:38.490Z,47.02
2023-10-12T14:21:11.030Z,47.48
2023-10-12T14:23:41.649Z,46.82
2023-10-12T14:26:11.568Z,47.04
2023-10-12T14:28:42.659Z,46.68
2023-10-12T14:31:10.269Z,46.09
2023-10-12T14:33:38.155Z,46.44
2023-10-12T14:36:07.318Z,46.75
2023-10-12T14:38:35.868Z,45.68
2023-10-12T14:41:06.708Z,44.71
2023-10-12T14:43:35.120Z,45.10
2023-10-12T14:46:04.369Z,44.94
2023-10-12T14:48:32.314Z,46.08
2023-10-12T14:51:00.849Z,46.72
2023-10-12T14:53:32.672Z,47.20
2023-10-12T14:56:00.144Z,47.79
2023-10-12T14:58:29.731Z,48.84
2023-10-12T15:00:57.384Z,48.42
2023-10-12T15:03:25.368Z,49.00
2023-10-12T15:05:54.370Z,49.49
2023-10-12T15:08:22.638Z,49.79
2023-10-12T15:10:51.454Z,50.17
2023-10-12T15:13:20.831Z,49.85
2023-10-12T15:15:49.798Z,50.78
2023-10-12T15:18:18.712Z,50.10
2023-10-12T15:20:49.917Z,50.83
2023-10-12T15:23:18.427Z,50.72
2023-10-12T15:25:46.020Z,50.04
2023-10-12T15:28:15.437Z,50.21
2023-10-12T15:30:44.505Z,51.04
2023-10-12T15:33:12.287Z,50.10
2023-10-12T15:35:41.183Z,50.58
2023-10-12T15:38:11.123Z,50.51
2023-10-12T15:40:39.631Z,51.10
2023-10-12T15:43:09.955Z,51.63
2023-10-12T15:45:40.280Z,51.87
2023-10-12T15:48:10.251Z,52.26
2023-10-12T15:50:37.828Z,51.80
2023-10-12T15:53:07.977Z,52.00
2023-10-12T15:55:36.200Z,51.92
2023-10-12T15:58:04.253Z,51.79
2023-10-12T16:00:32.589Z,52.37
2023-10-12T16:03:02.639Z,52.30
2023-10-12T16:05:31.692Z,52.38
2023-10-12T16:07:59.598Z,52.16
2023-10-12T16:10:29.098Z,52.56
2023-10-12T16:12:57.712Z,52.13
2023-10-12T16:15:25.886Z,51.58
2023-10-12T16:17:53.698Z,51.89
2023-10-12T16:20:22.601Z,52.34
2023-10-12T16:22:51.348Z,54.10
2023-10-12T16:25:20.522Z,53.50
2023-10-12T16:27:50.102Z,53.37
2023-10-12T16:30:18.531Z,54.24
2023-10-12T16:32:48.229Z,53.47
2023-10-12T16:35:18.827Z,53.62
2023-10-12T16:37:49.330Z,53.67
2023-10-12T16:40:17.568Z,54.95
2023-10-12T16:42:45.194Z,54.22
2023-10-12T16:45:15.491Z,55.73
2023-10-12T16:47:43.033Z,56.24
2023-10-12T16:50:11.084Z,56.30
2023-10-12T16:52:38.961Z,56.82
2023-10-12T16:55:10.752Z,56.66
2023-10-12T16:57:38.531Z,56.08
2023-10-12T17:00:09.113Z,58.04
2023-10-12T17:02:36.905Z,57.49
2023-10-12T17:05:05.005Z,57.36
2023-10-12T17:07:32.574Z,58.00
2023-10-12T17:10:00.639Z,58.38
2023-10-12T17:12:30.879Z,57.96
2023-10-12T17:15:00.178Z,58.68
2023-10-12T17:17:28.566Z,58.17
2023-10-12T17:19:56.089Z,58.88
2023-10-12T17:22:23.622Z,57.96
2023-10-12T17:24:51.175Z,58.71
2023-10-12T17:27:19.030Z,57.89
2023-10-12T17:29:50.788Z,59.26
2023-10-12T17:32:18.482Z,57.91
2023-10-12T17:34:46.074Z,59.10
2023-10-12T17:37:13.587Z,57.42
2023-10-12T17:39:41.074Z,57.18
2023-10-12T17:42:11.538Z,56.89
2023-10-12T17:44:40.290Z,57.04
2023-10-12T17:47:10.834Z,56.66
2023-10-12T17:49:38.525Z,56.51
2023-10-12T17:52:06.011Z,57.08
2023-10-12T17:54:34.150Z,56.39
2023-10-12T17:57:01.863Z,56.95
2023-10-12T17:59:29.428Z,57.32
2023-10-12T18:01:58.517Z,56.92
2023-10-12T18:04:27.574Z,58.05
2023-10-12T18:06:56.667Z,58.28
2023-10-12T18:09:25.241Z,58.35
2023-10-12T18:11:52.774Z,57.85
2023-10-12T18:14:21.036Z,58.32
2023-10-12T18:16:48.625Z,58.48
2023-10-12T18:19:16.227Z,57.69
2023-10-12T18:21:45.165Z,58.24
2023-10-12T18:24:13.003Z,58.98
2023-10-12T18:26:40.542Z,58.82
2023-10-12T18:29:08.024Z,58.30
2023-10-12T18:31:35.632Z,60.07
2023-10-12T18:34:03.268Z,59.38
2023-10-12T18:36:30.817Z,58.94
2023-10-12T18:38:59.662Z,58.59
2023-10-12T18:41:30.097Z,58.48
2023-10-12T18:43:57.646Z,58.16
2023-10-12T18:46:25.831Z,58.83
2023-10-12T18:48:53.468Z,58.58
2023-10-12T18:51:21.765Z,57.30
2023-10-12T18:53:51.360Z,57.49
2023-10-12T18:56:21.453Z,57.51
2023-10-12T18:58:50.550Z,57.08
2023-10-12T19:01:19.138Z,56.90
2023-10-12T19:03:46.905Z,56.95
2023-10-12T19:06:15.614Z,56.85
2023-10-12T19:08:44.510Z,57.22
2023-10-12T19:11:12.258Z,56.96
2023-10-12T19:13:41.599Z,56.96
2023-10-12T19:16:12.597Z,56.92
2023-10-12T19:18:40.179Z,56.86
2023-10-12T19:21:07.694Z,57.17
2023-10-12T19:23:36.321Z,57.45
2023-10-12T19:26:06.734Z,57.62
2023-10-12T19:28:35.863Z,57.03
2023-10-12T19:31:09.519Z,57.60
2023-10-12T19:33:38.679Z,57.03
2023-10-12T19:36:09.745Z,58.23
2023-10-12T19:38:41.680Z,58.65
2023-10-12T19:41:10.230Z,58.33
2023-10-12T19:43:38.705Z,58.48
2023-10-12T19:46:10.686Z,58.26
2023-10-12T19:48:39.035Z,58.58
2023-10-12T19:51:07.258Z,58.44
2023-10-12T19:53:34.841Z,58.96
2023-10-12T19:56:02.312Z,58.57
2023-10-12T19:58:32.433Z,58.71
2023-10-12T20:01:00.672Z,58.41
2023-10-12T20:03:30.376Z,58.35
2023-10-12T20:06:05.468Z,58.96
2023-10-12T20:08:33.124Z,59.42
2023-10-12T20:11:01.009Z,59.76
2023-10-12T20:13:30.566Z,60.93
2023-10-12T20:16:00.137Z,61.91
2023-10-12T20:18:29.071Z,62.39
2023-10-12T20:20:58.005Z,63.11
2023-10-12T20:23:25.537Z,64.36
2023-10-12T20:25:53.533Z,65.24
2023-10-12T20:28:23.501Z,65.25
2023-10-12T20:30:52.403Z,65.89
2023-10-12T20:33:20.974Z,66.26
2023-10-12T20:35:50.350Z,66.64
2023-10-12T20:38:21.918Z,66.26
2023-10-12T20:40:52.702Z,68.70
2023-10-12T20:43:23.010Z,68.26
2023-10-12T20:45:54.187Z,68.43
2023-10-12T20:48:21.726Z,69.12
2023-10-12T20:50:56.121Z,69.82
2023-10-12T20:53:24.634Z,70.40
2023-10-12T20:55:53.588Z,70.85
2023-10-12T20:58:26.208Z,71.03
2023-10-12T21:00:58.415Z,70.84
2023-10-12T21:03:37.433Z,70.67
2023-10-12T21:06:08.688Z,70.92
2023-10-12T21:08:43.681Z,71.33
2023-10-12T21:11:19.945Z,71.70
2023-10-12T21:13:48.776Z,72.10
2023-10-12T21:16:17.542Z,71.48
2023-10-12T21:18:51.465Z,70.57
2023-10-12T21:21:28.468Z,70.75
2023-10-12T21:23:57.526Z,70.71
2023-10-12T21:26:28.227Z,72.35
2023-10-12T21:28:58.423Z,73.52
2023-10-12T21:31:29.664Z,74.42
2023-10-12T21:34:00.191Z,75.05
2023-10-12T21:36:30.470Z,75.08
2023-10-12T21:38:58.649Z,75.51
2023-10-12T21:41:35.508Z,75.47
2023-10-12T21:44:05.570Z,75.47
2023-10-12T21:46:34.061Z,76.02
2023-10-12T21:49:01.939Z,76.20
2023-10-12T21:51:31.086Z,76.43
2023-10-12T21:53:58.645Z,77.24
2023-10-12T21:56:26.452Z,78.09
2023-10-12T21:58:54.394Z,78.11
2023-10-12T22:01:35.917Z,78.07
2023-10-12T22:04:04.808Z,79.10
2023-10-12T22:06:34.763Z,79.52
2023-10-12T22:09:05.096Z,79.29
2023-10-12T22:11:39.627Z,79.47
2023-10-12T22:14:16.876Z,80.46
2023-10-12T22:16:50.710Z,80.70
2023-10-12T22:19:20.752Z,80.36
2023-10-12T22:21:50.133Z,80.54
2023-10-12T22:24:17.924Z,81.10
2023-10-12T22:26:46.005Z,80.54
2023-10-12T22:29:14.599Z,80.43
2023-10-12T22:31:43.328Z,80.18
2023-10-12T22:34:15.865Z,80.79
2023-10-12T22:36:47.660Z,81.37
2023-10-12T22:39:24.189Z,82.30
2023-10-12T22:41:51.744Z,82.19
2023-10-12T22:44:20.416Z,81.74
2023-10-12T22:46:48.170Z,82.48
2023-10-12T22:49:20.184Z,83.60
2023-10-12T22:51:48.625Z,83.73
2023-10-12T22:54:18.455Z,84.05
2023-10-12T22:56:46.363Z,84.77
2023-10-12T22:59:16.240Z,83.72
2023-10-12T23:01:43.796Z,85.21
2023-10-12T23:04:12.014Z,84.45
2023-10-12T23:06:39.947Z,84.72
2023-10-12T23:09:08.756Z,85.48
2023-10-12T23:11:38.520Z,85.06
2023-10-12T23:14:10.432Z,83.13
2023-10-12T23:16:51.560Z,83.32
2023-10-12T23:19:25.143Z,83.36
2023-10-12T23:21:52.777Z,83.85
2023-10-12T23:24:20.746Z,84.64
2023-10-12T23:26:50.150Z,84.53
2023-10-12T23:29:18.863Z,84.97
2023-10-12T23:31:46.671Z,84.70
2023-10-12T23:34:25.679Z,84.59
2023-10-12T23:36:59.574Z,84.77
2023-10-12T23:39:30.019Z,85.28
2023-10-12T23:42:08.522Z,85.59
2023-10-12T23:44:55.126Z,85.87
2023-10-12T23:47:44.209Z,85.77
2023-10-12T23:50:28.869Z,85.90
2023-10-12T23:53:08.450Z,86.33
2023-10-12T23:55:42.780Z,86.66
2023-10-12T23:58:13.526Z,86.69
